createdAt,value
2022-09-10T00:01:02.819Z,14.16
2022-09-10T00:03:30.580Z,14.28
2022-09-10T00:05:58.347Z,14.39
2022-09-10T00:08:27.511Z,14.38
2022-09-10T00:10:55.227Z,14.39
2022-09-10T00:13:24.451Z,14.44
2022-09-10T00:15:54.632Z,14.44
2022-09-10T00:18:23.500Z,14.37
2022-09-10T00:20:53.726Z,14.48
2022-09-10T00:23:25.859Z,14.41
2022-09-10T00:25:56.024Z,14.51
2022-09-10T00:28:25.807Z,14.53
2022-09-10T00:30:55.571Z,14.42
2022-09-10T00:33:24.368Z,14.40
2022-09-10T00:35:52.223Z,14.48
2022-09-10T00:38:20.369Z,14.35
2022-09-10T00:40:48.312Z,14.52
2022-09-10T00:43:20.789Z,14.43
2022-09-10T00:45:51.901Z,14.45
2022-09-10T00:48:23.863Z,14.41
2022-09-10T00:50:52.254Z,14.40
2022-09-10T00:53:23.549Z,14.51
2022-09-10T00:55:55.906Z,14.53
2022-09-10T00:58:26.440Z,14.52
2022-09-10T01:00:58.542Z,14.39
2022-09-10T01:03:30.148Z,14.56
2022-09-10T01:05:58.571Z,14.45
2022-09-10T01:08:27.458Z,14.40
2022-09-10T01:11:08.449Z,14.28
2022-09-10T01:13:49.399Z,14.45
2022-09-10T01:16:25.142Z,14.42
2022-09-10T01:19:03.824Z,14.45
2022-09-10T01:21:36.100Z,14.40
2022-09-10T01:24:30.538Z,14.49
2022-09-10T01:27:33.930Z,14.53
2022-09-10T01:30:09.139Z,14.52
2022-09-10T01:32:48.624Z,14.43
2022-09-10T01:35:19.665Z,14.51
2022-09-10T01:37:53.318Z,14.45
2022-09-10T01:40:29.617Z,14.34
2022-09-10T01:43:01.748Z,14.31
2022-09-10T01:45:33.977Z,14.24
2022-09-10T01:48:31.267Z,14.34
2022-09-10T01:51:08.912Z,14.36
2022-09-10T01:54:00.134Z,14.31
2022-09-10T01:56:39.721Z,14.36
2022-09-10T01:59:19.130Z,14.25
2022-09-10T02:01:53.155Z,14.25
2022-09-10T02:04:23.292Z,14.25
2022-09-10T02:06:52.495Z,14.17
2022-09-10T02:09:20.868Z,14.18
2022-09-10T02:11:51.188Z,14.21
2022-09-10T02:14:21.653Z,14.39
2022-09-10T02:16:55.060Z,14.35
2022-09-10T02:19:22.934Z,14.34
2022-09-10T02:21:50.799Z,14.43
2022-09-10T02:24:18.775Z,14.43
2022-09-10T02:26:47.223Z,14.36
2022-09-10T02:29:16.984Z,14.37
2022-09-10T02:31:45.106Z,14.26
2022-09-10T02:34:15.816Z,14.23
2022-09-10T02:36:43.639Z,14.37
2022-09-10T02:39:11.479Z,14.34
2022-09-10T02:41:41.494Z,14.40
2022-09-10T02:44:09.765Z,14.43
2022-09-10T02:46:38.205Z,14.43
2022-09-10T02:49:06.160Z,14.50
2022-09-10T02:51:35.270Z,14.46
2022-09-10T02:54:02.972Z,14.49
2022-09-10T02:56:30.683Z,14.52
2022-09-10T02:58:58.531Z,14.55
2022-09-10T03:01:26.336Z,14.41
2022-09-10T03:03:56.309Z,14.38
2022-09-10T03:06:24.894Z,14.42
2022-09-10T03:08:55.614Z,14.31
2022-09-10T03:11:24.191Z,14.34
2022-09-10T03:13:52.232Z,14.41
2022-09-10T03:16:20.645Z,14.31
2022-09-10T03:18:48.733Z,14.36
2022-09-10T03:21:18.855Z,14.24
2022-09-10T03:23:49.539Z,14.43
2022-09-10T03:26:20.460Z,14.34
2022-09-10T03:28:50.136Z,14.41
2022-09-10T03:31:18.240Z,14.39
2022-09-10T03:33:46.320Z,14.39
2022-09-10T03:36:14.408Z,14.38
2022-09-10T03:38:42.631Z,14.35
2022-09-10T03:41:11.160Z,14.25
2022-09-10T03:43:40.231Z,14.28
2022-09-10T03:46:07.991Z,14.14
2022-09-10T03:48:35.701Z,14.24
2022-09-10T03:51:03.487Z,14.05
2022-09-10T03:53:31.247Z,14.11
2022-09-10T03:55:58.987Z,14.13
2022-09-10T03:58:26.814Z,14.22
2022-09-10T04:00:56.059Z,14.11
2022-09-10T04:03:23.836Z,14.10
2022-09-10T04:05:51.672Z,14.01
2022-09-10T04:08:20.574Z,13.93
2022-09-10T04:10:48.821Z,13.99
2022-09-10T04:13:16.741Z,14.06
2022-09-10T04:15:46.025Z,14.07
2022-09-10T04:18:15.521Z,13.99
2022-09-10T04:20:46.592Z,14.18
2022-09-10T04:23:14.632Z,14.12
2022-09-10T04:25:42.388Z,14.03
2022-09-10T04:28:11.450Z,14.11
2022-09-10T04:30:40.293Z,14.07
2022-09-10T04:33:08.273Z,14.17
2022-09-10T04:35:37.693Z,14.06
2022-09-10T04:38:05.500Z,14.05
2022-09-10T04:40:34.107Z,14.05
2022-09-10T04:43:01.928Z,14.07
2022-09-10T04:45:30.837Z,14.13
2022-09-10T04:48:00.850Z,14.13
2022-09-10T04:50:31.364Z,13.99
2022-09-10T04:53:01.224Z,13.89
2022-09-10T04:55:31.369Z,13.94
2022-09-10T04:57:59.131Z,14.01
2022-09-10T05:00:27.078Z,14.07
2022-09-10T05:02:54.827Z,14.01
2022-09-10T05:05:22.520Z,14.04
2022-09-10T05:07:50.276Z,14.14
2022-09-10T05:10:22.317Z,14.09
2022-09-10T05:12:50.275Z,14.05
2022-09-10T05:15:18.098Z,14.10
2022-09-10T05:17:47.337Z,14.06
2022-09-10T05:20:15.185Z,14.06
2022-09-10T05:22:43.272Z,14.10
2022-09-10T05:25:11.139Z,14.09
2022-09-10T05:27:41.813Z,13.97
2022-09-10T05:30:10.684Z,13.92
2022-09-10T05:32:40.136Z,13.99
2022-09-10T05:35:09.465Z,14.09
2022-09-10T05:37:37.229Z,13.98
2022-09-10T05:40:06.194Z,13.89
2022-09-10T05:42:34.321Z,13.90
2022-09-10T05:45:03.581Z,13.90
2022-09-10T05:47:31.486Z,13.89
2022-09-10T05:49:59.321Z,13.78
2022-09-10T05:52:27.149Z,13.80
2022-09-10T05:54:56.451Z,13.94
2022-09-10T05:57:24.288Z,14.00
2022-09-10T05:59:52.316Z,13.92
2022-09-10T06:02:24.285Z,13.83
2022-09-10T06:04:52.211Z,13.95
2022-09-10T06:07:20.032Z,13.93
2022-09-10T06:09:47.804Z,14.05
2022-09-10T06:12:17.198Z,14.11
2022-09-10T06:14:45.025Z,14.09
2022-09-10T06:17:13.048Z,14.14
2022-09-10T06:19:44.599Z,14.10
2022-09-10T06:22:13.045Z,14.08
2022-09-10T06:24:40.806Z,14.16
2022-09-10T06:27:09.689Z,14.21
2022-09-10T06:29:37.728Z,14.30
2022-09-10T06:32:06.380Z,14.28
2022-09-10T06:34:35.752Z,14.40
2022-09-10T06:37:06.193Z,14.38
2022-09-10T06:39:34.080Z,14.48
2022-09-10T06:42:01.914Z,14.55
2022-09-10T06:44:30.433Z,14.55
2022-09-10T06:49:46.187Z,14.53
2022-09-10T06:52:15.384Z,14.57
2022-09-10T06:54:43.162Z,14.46
2022-09-10T06:57:11.142Z,14.45
2022-09-10T06:59:38.881Z,14.45
2022-09-10T07:02:06.673Z,14.46
2022-09-10T07:04:34.461Z,14.47
2022-09-10T07:07:02.552Z,14.53
2022-09-10T07:09:31.752Z,14.57
2022-09-10T07:12:00.160Z,14.40
2022-09-10T07:14:28.103Z,14.40
2022-09-10T07:16:56.945Z,14.39
2022-09-10T07:19:24.948Z,14.44
2022-09-10T07:21:52.762Z,14.22
2022-09-10T07:24:21.452Z,14.48
2022-09-10T07:26:50.623Z,14.40
2022-09-10T07:29:19.213Z,14.44
2022-09-10T07:31:48.179Z,14.49
2022-09-10T07:34:16.394Z,14.56
2022-09-10T07:36:44.237Z,14.63
2022-09-10T07:39:12.066Z,14.72
2022-09-10T07:41:39.852Z,14.75
2022-09-10T07:44:09.071Z,14.80
2022-09-10T07:46:37.988Z,14.91
2022-09-10T07:49:05.799Z,15.01
2022-09-10T07:51:35.696Z,15.00
2022-09-10T07:54:03.796Z,15.00
2022-09-10T07:56:31.925Z,14.93
2022-09-10T07:58:59.650Z,15.03
2022-09-10T08:01:28.980Z,15.14
2022-09-10T08:03:57.441Z,14.83
2022-09-10T08:06:25.841Z,14.95
2022-09-10T08:08:53.539Z,14.91
2022-09-10T08:11:22.367Z,14.98
2022-09-10T08:13:52.416Z,14.99
2022-09-10T08:16:23.103Z,15.10
2022-09-10T08:18:52.894Z,15.08
2022-09-10T08:21:20.774Z,15.16
2022-09-10T08:23:51.350Z,15.25
2022-09-10T08:26:20.068Z,15.38
2022-09-10T08:28:48.453Z,15.36
2022-09-10T08:31:16.749Z,15.21
2022-09-10T08:33:49.340Z,15.17
2022-09-10T08:36:19.337Z,15.37
2022-09-10T08:38:47.639Z,15.42
2022-09-10T08:41:32.539Z,15.30
2022-09-10T08:44:05.352Z,15.22
2022-09-10T08:46:38.272Z,15.25
2022-09-10T08:49:12.697Z,15.40
2022-09-10T08:51:46.053Z,15.33
2022-09-10T08:54:16.956Z,15.40
2022-09-10T08:56:46.964Z,15.54
2022-09-10T08:59:22.339Z,15.56
2022-09-10T09:01:54.894Z,15.66
2022-09-10T09:04:35.075Z,15.47
2022-09-10T09:07:13.137Z,15.59
2022-09-10T09:09:41.095Z,15.62
2022-09-10T09:12:19.728Z,15.68
2022-09-10T09:14:56.471Z,15.75
2022-09-10T09:17:51.135Z,15.85
2022-09-10T09:20:26.646Z,15.58
2022-09-10T09:22:57.336Z,15.83
2022-09-10T09:25:28.727Z,15.96
2022-09-10T09:27:57.378Z,16.01
2022-09-10T09:30:28.840Z,16.16
2022-09-10T09:33:03.507Z,15.85
2022-09-10T09:35:34.695Z,15.92
2022-09-10T09:38:19.221Z,16.22
2022-09-10T09:40:49.617Z,16.14
2022-09-10T09:43:29.788Z,16.31
2022-09-10T09:45:58.113Z,16.32
2022-09-10T09:48:26.385Z,16.40
2022-09-10T09:50:56.763Z,16.49
2022-09-10T09:53:27.802Z,16.46
2022-09-10T09:55:57.967Z,16.12
2022-09-10T09:58:34.707Z,16.24
2022-09-10T10:01:14.579Z,16.00
2022-09-10T10:03:58.785Z,15.99
2022-09-10T10:06:29.684Z,15.86
2022-09-10T10:09:05.073Z,15.84
2022-09-10T10:11:57.728Z,15.99
2022-09-10T10:14:35.096Z,15.94
2022-09-10T10:17:03.242Z,15.82
2022-09-10T10:19:35.284Z,15.73
2022-09-10T10:22:21.859Z,15.74
2022-09-10T10:24:54.182Z,15.67
2022-09-10T10:27:30.131Z,15.69
2022-09-10T10:29:59.453Z,15.49
2022-09-10T10:32:35.235Z,15.57
2022-09-10T10:35:24.240Z,15.47
2022-09-10T10:38:14.243Z,15.50
2022-09-10T10:40:48.690Z,15.58
2022-09-10T10:43:29.291Z,15.41
2022-09-10T10:46:02.334Z,15.37
2022-09-10T10:48:42.674Z,15.35
2022-09-10T10:51:18.252Z,15.41
2022-09-10T10:53:58.910Z,15.34
2022-09-10T10:56:33.904Z,15.35
2022-09-10T10:59:18.407Z,15.35
2022-09-10T11:01:52.973Z,15.43
2022-09-10T11:04:29.009Z,15.48
2022-09-10T11:07:02.074Z,15.45
2022-09-10T11:09:34.032Z,15.24
2022-09-10T11:12:06.863Z,15.16
2022-09-10T11:14:40.863Z,15.45
2022-09-10T11:17:16.307Z,15.66
2022-09-10T11:20:00.621Z,15.63
2022-09-10T11:22:43.749Z,15.57
2022-09-10T11:25:21.002Z,15.76
2022-09-10T11:27:54.872Z,15.77
2022-09-10T11:30:24.211Z,15.88
2022-09-10T11:32:58.642Z,16.32
2022-09-10T11:35:29.967Z,15.96
2022-09-10T11:38:07.856Z,16.19
2022-09-10T11:40:43.553Z,16.34
2022-09-10T11:43:16.192Z,16.01
2022-09-10T11:45:48.148Z,15.85
2022-09-10T11:48:24.555Z,16.04
2022-09-10T11:50:57.320Z,15.94
2022-09-10T11:53:26.211Z,16.02
2022-09-10T11:56:12.333Z,16.22
2022-09-10T11:58:50.531Z,16.47
2022-09-10T12:01:30.471Z,16.31
2022-09-10T12:04:17.207Z,16.55
2022-09-10T12:06:54.987Z,16.23
2022-09-10T12:09:30.784Z,16.65
2022-09-10T12:12:09.059Z,16.88
2022-09-10T12:14:39.887Z,16.86
2022-09-10T12:17:14.465Z,16.76
2022-09-10T12:19:47.792Z,16.62
2022-09-10T12:22:21.569Z,16.82
2022-09-10T12:24:56.395Z,16.89
2022-09-10T12:27:45.493Z,16.80
2022-09-10T12:30:59.048Z,16.88
2022-09-10T12:33:54.238Z,16.34
2022-09-10T12:36:55.373Z,16.15
2022-09-10T12:39:24.906Z,16.25
2022-09-10T12:41:59.652Z,16.40
2022-09-10T12:44:45.471Z,16.46
2022-09-10T12:47:30.088Z,16.12
2022-09-10T12:50:03.081Z,16.13
2022-09-10T12:52:45.058Z,15.96
2022-09-10T12:55:22.054Z,15.93
2022-09-10T12:58:00.333Z,16.03
2022-09-10T13:00:39.263Z,16.06
2022-09-10T13:03:17.065Z,16.15
2022-09-10T13:05:53.268Z,16.13
2022-09-10T13:08:25.656Z,16.21
2022-09-10T13:11:15.848Z,16.07
2022-09-10T13:13:46.159Z,16.07
2022-09-10T13:16:18.829Z,15.84
2022-09-10T13:18:48.295Z,16.02
2022-09-10T13:21:52.916Z,16.28
2022-09-10T13:25:01.724Z,16.27
2022-09-10T13:27:39.887Z,16.38
2022-09-10T13:30:21.956Z,16.35
2022-09-10T13:32:53.344Z,16.28
2022-09-10T13:35:42.620Z,16.21
2022-09-10T13:38:33.041Z,16.23
2022-09-10T13:41:25.332Z,16.16
2022-09-10T13:44:15.791Z,15.98
2022-09-10T13:46:46.596Z,16.01
2022-09-10T13:49:20.060Z,15.87
2022-09-10T13:51:52.273Z,16.14
2022-09-10T13:54:34.603Z,16.02
2022-09-10T13:57:09.884Z,16.09
2022-09-10T13:59:38.495Z,16.03
2022-09-10T14:02:06.357Z,16.10
2022-09-10T14:04:36.809Z,16.12
2022-09-10T14:07:11.537Z,16.02
2022-09-10T14:09:43.582Z,16.04
2022-09-10T14:12:13.922Z,16.10
2022-09-10T14:14:45.385Z,16.06
2022-09-10T14:17:17.597Z,16.01
2022-09-10T14:19:49.376Z,15.93
2022-09-10T14:22:22.220Z,15.87
2022-09-10T14:24:53.603Z,15.80
2022-09-10T14:27:27.272Z,15.72
2022-09-10T14:29:57.425Z,15.77
2022-09-10T14:32:29.420Z,15.83
2022-09-10T14:34:57.621Z,15.86
2022-09-10T14:37:31.184Z,16.03
2022-09-10T14:40:04.074Z,15.93
2022-09-10T14:42:36.194Z,15.82
2022-09-10T14:45:04.700Z,16.02
2022-09-10T14:47:37.080Z,16.21
2022-09-10T14:50:28.392Z,16.31
2022-09-10T14:52:56.535Z,16.14
2022-09-10T14:55:26.312Z,16.22
2022-09-10T14:57:56.665Z,16.27
2022-09-10T15:00:26.022Z,16.29
2022-09-10T15:02:57.370Z,16.19
2022-09-10T15:05:25.416Z,16.05
2022-09-10T15:07:53.342Z,16.25
2022-09-10T15:10:21.204Z,16.23
2022-09-10T15:12:52.356Z,16.44
2022-09-10T15:15:21.644Z,16.44
2022-09-10T15:17:49.401Z,16.55
2022-09-10T15:20:17.673Z,16.59
2022-09-10T15:22:46.016Z,16.62
2022-09-10T15:25:28.395Z,16.72
2022-09-10T15:27:56.153Z,16.76
2022-09-10T15:30:25.695Z,16.83
2022-09-10T15:32:54.359Z,16.80
2022-09-10T15:35:23.075Z,16.80
2022-09-10T15:37:51.282Z,16.86
2022-09-10T15:40:19.073Z,16.94
2022-09-10T15:42:46.895Z,17.13
2022-09-10T15:45:15.042Z,17.16
2022-09-10T15:47:44.215Z,17.04
2022-09-10T15:50:12.302Z,17.14
2022-09-10T15:52:40.500Z,17.15
2022-09-10T15:55:09.022Z,17.00
2022-09-10T15:57:36.855Z,17.15
2022-09-10T16:00:06.624Z,17.01
2022-09-10T16:02:34.831Z,16.86
2022-09-10T16:05:04.363Z,17.05
2022-09-10T16:07:32.248Z,17.07
2022-09-10T16:10:00.064Z,17.01
2022-09-10T16:12:27.877Z,17.16
2022-09-10T16:14:55.831Z,17.22
2022-09-10T16:17:23.582Z,17.20
2022-09-10T16:19:54.133Z,17.23
2022-09-10T16:22:23.979Z,17.19
2022-09-10T16:24:51.729Z,17.22
2022-09-10T16:27:19.514Z,17.22
2022-09-10T16:29:48.203Z,17.26
2022-09-10T16:32:15.940Z,17.23
2022-09-10T16:34:43.702Z,17.22
2022-09-10T16:37:11.455Z,17.08
2022-09-10T16:39:40.760Z,17.10
2022-09-10T16:42:09.706Z,17.07
2022-09-10T16:44:37.420Z,16.97
2022-09-10T16:47:05.245Z,16.81
2022-09-10T16:49:33.011Z,16.92
2022-09-10T16:52:00.795Z,17.02
2022-09-10T16:54:29.012Z,16.89
2022-09-10T16:56:58.169Z,16.97
2022-09-10T16:59:26.022Z,17.00
2022-09-10T17:01:54.838Z,16.88
2022-09-10T17:04:28.947Z,16.74
2022-09-10T17:06:57.307Z,16.75
2022-09-10T17:09:25.997Z,16.67
2022-09-10T17:11:54.072Z,16.72
2022-09-10T17:14:23.584Z,16.77
2022-09-10T17:16:52.090Z,16.65
2022-09-10T17:19:23.642Z,16.75
2022-09-10T17:21:53.063Z,16.73
2022-09-10T17:24:23.105Z,16.61
2022-09-10T17:26:51.783Z,16.42
2022-09-10T17:29:22.302Z,16.49
2022-09-10T17:31:52.435Z,16.44
2022-09-10T17:34:21.507Z,16.46
2022-09-10T17:36:49.732Z,16.43
2022-09-10T17:39:18.571Z,16.45
2022-09-10T17:41:46.346Z,16.41
2022-09-10T17:44:14.597Z,16.29
2022-09-10T17:46:42.831Z,16.36
2022-09-10T17:49:14.117Z,16.38
2022-09-10T17:51:41.932Z,16.38
2022-09-10T17:54:09.798Z,16.29
2022-09-10T17:56:38.066Z,16.24
2022-09-10T17:59:06.666Z,16.28
2022-09-10T18:01:37.723Z,16.30
2022-09-10T18:04:06.027Z,16.27
2022-09-10T18:06:36.265Z,16.10
2022-09-10T18:09:04.566Z,16.19
2022-09-10T18:11:34.728Z,16.17
2022-09-10T18:14:02.877Z,16.19
2022-09-10T18:16:33.134Z,16.17
2022-09-10T18:19:03.183Z,16.19
2022-09-10T18:21:32.667Z,16.10
2022-09-10T18:24:04.017Z,16.10
2022-09-10T18:26:34.619Z,16.08
2022-09-10T18:29:05.080Z,16.11
2022-09-10T18:31:35.339Z,16.12
2022-09-10T18:34:04.915Z,16.14
2022-09-10T18:36:32.645Z,16.15
2022-09-10T18:39:05.690Z,15.98
2022-09-10T18:41:36.451Z,16.05
2022-09-10T18:44:07.171Z,16.03
2022-09-10T18:46:36.486Z,15.88
2022-09-10T18:49:05.233Z,15.97
2022-09-10T18:51:33.007Z,15.96
2022-09-10T18:54:02.991Z,15.99
2022-09-10T18:56:33.188Z,15.90
2022-09-10T18:59:04.666Z,15.87
2022-09-10T19:01:33.065Z,15.91
2022-09-10T19:04:01.182Z,15.85
2022-09-10T19:06:32.283Z,15.83
2022-09-10T19:09:01.399Z,15.78
2022-09-10T19:11:33.187Z,15.78
2022-09-10T19:14:02.213Z,15.77
2022-09-10T19:16:31.908Z,15.76
2022-09-10T19:19:00.959Z,15.66
2022-09-10T19:21:32.272Z,15.66
2022-09-10T19:24:01.578Z,15.64
2022-09-10T19:26:33.287Z,15.54
2022-09-10T19:29:02.381Z,15.48
2022-09-10T19:31:32.818Z,15.55
2022-09-10T19:34:03.034Z,15.39
2022-09-10T19:36:34.019Z,15.36
2022-09-10T19:39:04.774Z,15.38
2022-09-10T19:41:35.388Z,15.30
2022-09-10T19:44:04.181Z,15.32
2022-09-10T19:46:31.964Z,15.29
2022-09-10T19:49:00.773Z,15.16
2022-09-10T19:51:29.931Z,15.16
2022-09-10T19:53:59.464Z,15.15
2022-09-10T19:56:31.219Z,15.16
2022-09-10T19:59:02.580Z,14.97
2022-09-10T20:01:32.169Z,14.90
2022-09-10T20:04:01.888Z,15.03
2022-09-10T20:06:30.664Z,14.85
2022-09-10T20:08:58.848Z,14.83
2022-09-10T20:11:28.616Z,14.85
2022-09-10T20:13:58.303Z,14.76
2022-09-10T20:16:27.741Z,14.74
2022-09-10T20:18:55.841Z,14.80
2022-09-10T20:21:26.796Z,14.80
2022-09-10T20:23:56.567Z,14.76
2022-09-10T20:26:25.819Z,14.58
2022-09-10T20:28:55.738Z,14.64
2022-09-10T20:31:24.704Z,14.69
2022-09-10T20:33:57.424Z,14.69
2022-09-10T20:36:27.019Z,14.68
2022-09-10T20:38:55.818Z,14.55
2022-09-10T20:41:24.062Z,14.65
2022-09-10T20:43:52.901Z,14.50
2022-09-10T20:46:23.115Z,14.60
2022-09-10T20:48:53.329Z,14.60
2022-09-10T20:51:22.609Z,14.46
2022-09-10T20:53:50.399Z,14.38
2022-09-10T20:56:19.755Z,14.55
2022-09-10T20:58:48.091Z,14.52
2022-09-10T21:01:18.934Z,14.54
2022-09-10T21:03:47.927Z,14.40
2022-09-10T21:06:17.724Z,14.43
2022-09-10T21:08:48.220Z,14.53
2022-09-10T21:11:17.942Z,14.38
2022-09-10T21:13:47.841Z,14.47
2022-09-10T21:16:17.729Z,14.38
2022-09-10T21:18:53.598Z,14.44
2022-09-10T21:21:25.640Z,14.40
2022-09-10T21:23:56.513Z,14.37
2022-09-10T21:26:26.652Z,14.30
2022-09-10T21:28:56.340Z,14.28
2022-09-10T21:31:25.166Z,14.32
2022-09-10T21:33:52.918Z,14.31
2022-09-10T21:36:21.748Z,14.29
2022-09-10T21:38:50.241Z,14.21
2022-09-10T21:41:25.770Z,14.04
2022-09-10T21:43:53.614Z,14.09
2022-09-10T21:46:21.490Z,14.01
2022-09-10T21:48:49.244Z,13.97
2022-09-10T21:51:19.482Z,13.98
2022-09-10T21:53:47.931Z,13.91
2022-09-10T21:56:17.215Z,13.86
2022-09-10T21:58:47.313Z,13.91
2022-09-10T22:01:15.771Z,13.81
2022-09-10T22:03:43.910Z,13.87
2022-09-10T22:06:13.369Z,13.82
2022-09-10T22:08:43.468Z,13.69
2022-09-10T22:11:14.243Z,13.70
2022-09-10T22:13:42.380Z,13.69
2022-09-10T22:16:13.404Z,13.67
2022-09-10T22:18:41.446Z,13.55
2022-09-10T22:21:10.127Z,13.66
2022-09-10T22:23:39.503Z,13.68
2022-09-10T22:26:09.205Z,13.64
2022-09-10T22:28:37.495Z,13.56
2022-09-10T22:31:14.970Z,13.59
2022-09-10T22:33:44.996Z,13.55
2022-09-10T22:36:15.153Z,13.55
2022-09-10T22:38:44.185Z,13.44
2022-09-10T22:41:14.095Z,13.55
2022-09-10T22:43:42.769Z,13.53
2022-09-10T22:46:12.498Z,13.39
2022-09-10T22:48:42.492Z,13.53
2022-09-10T22:51:12.721Z,13.47
2022-09-10T22:53:41.575Z,13.57
2022-09-10T22:56:10.150Z,13.53
2022-09-10T22:58:38.409Z,13.60
2022-09-10T23:01:07.628Z,13.55
2022-09-10T23:03:37.182Z,13.43
2022-09-10T23:06:06.324Z,13.36
2022-09-10T23:08:35.896Z,13.39
2022-09-10T23:11:12.202Z,13.30
2022-09-10T23:13:41.041Z,13.27
2022-09-10T23:16:13.805Z,13.21
2022-09-10T23:18:44.024Z,13.14
2022-09-10T23:21:11.942Z,13.12
2022-09-10T23:23:39.715Z,13.03
2022-09-10T23:26:09.866Z,13.09
2022-09-10T23:28:38.311Z,13.06
2022-09-10T23:31:13.376Z,12.93
2022-09-10T23:33:44.316Z,12.98
2022-09-10T23:36:13.295Z,12.82
2022-09-10T23:38:42.260Z,12.81
2022-09-10T23:41:11.873Z,12.84
2022-09-10T23:43:40.317Z,12.88
2022-09-10T23:46:08.953Z,12.76
2022-09-10T23:48:37.527Z,12.69
2022-09-10T23:51:07.728Z,12.77
2022-09-10T23:53:35.483Z,12.66
2022-09-10T23:56:03.846Z,12.67
2022-09-10T23:58:31.726Z,12.69
